Flight Track Log - Related Links

Times and Time Zones

All times are in EDT time to prevent confusion due to time zone crossing. See the EGF4039 flight status page for this flight to view local times or setup timezone preferences in your user account.

Time Position Orientation Groundspeed Altitude Reporting Facility
EDT Latitude Longitude Course Direction KTS MPH feet Rate Location/Type
Wed 04:52:18 PM 42.6061 -92.3458 97° East 246 283 5,000  Level Chicago Center
Wed 04:53:20 PM 42.5961 -92.2522 98° East 245 282 7,200 2,468 Climbing Chicago Center
Wed 04:54:22 PM 42.5842 -92.1492 99° East 264 304 10,100 2,177 Climbing Chicago Center
Wed 04:55:00 PM 42.4916 -91.7740 97° East  Level FlightAware Approximate
Wed 04:55:24 PM 42.5700 -92.0364 100° East 286 329 11,700  Level Chicago Center
Wed 04:56:00 PM 42.4833 -91.6483 90° East  Level FlightAware Approximate
Wed 04:56:26 PM 42.5514 -91.8806 99° East 331 381 13,800  Level Chicago Center
Wed 04:57:00 PM 42.4732 -91.5269 97° East  Level FlightAware Approximate
Wed 04:57:29 PM 42.5353 -91.7453 99° East 366 421 15,300  Level Chicago Center
Wed 04:58:31 PM 42.5178 -91.6050 100° East 384 442 16,700 1,355 Climbing Chicago Center
Wed 04:59:33 PM 42.5094 -91.4586 94° East 404 465 18,100 1,488 Climbing Chicago Center
Wed 05:00:36 PM 42.5156 -91.2781 87° East 408 470 19,800 1,429 Climbing Chicago Center
Wed 05:01:39 PM 42.5206 -91.1228 87° East 416 479 21,100 1,104 Climbing Chicago Center
Wed 05:02:41 PM 42.5239 -90.9631 88° East 428 493 22,100 919 Climbing Chicago Center
Wed 05:03:43 PM 42.5278 -90.8003 88° East 437 503 23,000 435 Climbing Chicago Center
Wed 05:04:45 PM 42.5322 -90.5981 88° East 452 520 23,000  Level Chicago Center
Wed 05:05:47 PM 42.5367 -90.4294 88° East 451 519 23,000  Level Chicago Center
Wed 05:06:49 PM 42.5397 -90.2614 89° East 450 518 23,000  Level Chicago Center
Wed 05:07:51 PM 42.5422 -90.0939 89° East 450 518 23,000  Level Chicago Center
Wed 05:08:53 PM 42.5456 -89.8931 89° East 449 517 23,000 -629 Level Chicago Center
Wed 05:09:55 PM 42.5489 -89.7192 88° East 447 514 21,700 -1,645 Descending Chicago Center
Wed 05:10:57 PM 42.5514 -89.5525 89° East 446 513 19,600 -2,016 Descending Chicago Center
Wed 05:12:00 PM 42.5542 -89.3886 89° East 439 505 17,500 -2,016 Descending Chicago Center
Wed 05:13:02 PM 42.5558 -89.2322 89° East 423 487 15,400 -1,500 Descending Chicago Center
Wed 05:14:04 PM 42.5500 -89.0819 93° East 407 468 14,400 -1,065 Descending Chicago Center
Wed 05:15:06 PM 42.5058 -88.9289 111° Southeast 369 425 13,200 -1,113 Descending Chicago Center
Wed 05:16:08 PM 42.4733 -88.8253 113° Southeast 305 351 12,100 -1,065 Descending Chicago Center
Wed 05:17:10 PM 42.4419 -88.7219 112° Southeast 296 341 11,000 -1,113 Descending Chicago Center
Wed 05:18:12 PM 42.4128 -88.6228 112° Southeast 286 329 9,800 -968 Descending Chicago Center
Wed 05:19:14 PM 42.3836 -88.5269 112° Southeast 279 321 9,000 -726 Descending Chicago Center
Wed 05:20:16 PM 42.3769 -88.4103 94° East 274 315 8,300 -871 Descending Chicago Center
Wed 05:21:18 PM 42.3439 -88.3239 117° Southeast 258 297 7,200 -629 Descending Chicago Center
Wed 05:22:20 PM 42.2883 -88.2775 148° Southeast 243 280 7,000 -432 Descending Chicago Center
Wed 05:23:23 PM 42.2431 -88.2189 136° Southeast 228 262 6,300 -816 Descending Chicago Center
Wed 05:24:25 PM 42.1961 -88.1664 140° Southeast 224 258 5,300 -968 Descending Chicago Center
Wed 05:25:27 PM 42.1408 -88.1039 140° Southeast 219 252 4,300 -968 Descending Chicago Center

Login

Don't have an account? Register now (free) for customized features, flight alerts, and more!